Time;durP1;ratioP1;P1;durP2;ratioP2;P2;SDS_P1;SDS_P2;PMS_P1;PMS_P2;Temp;Humidity;BMP_temperature;BMP_pressure;BME280_temperature;BME280_humidity;BME280_pressure;Samples;Min_cycle;Max_cycle;Signal;HPM_P1;HPM_P2
2021/08/09 00:01:32;;;;;;;2.60;2.10;;;17.90;99.90;;;;;;5076655;28;20630;-63
2021/08/09 00:03:58;;;;;;;3.20;2.10;;;17.90;99.90;;;;;;5076723;28;20272;-65
2021/08/09 00:06:23;;;;;;;2.30;2.10;;;17.90;99.90;;;;;;5076136;28;20654;-65
2021/08/09 00:08:50;;;;;;;2.37;2.17;;;18.00;99.90;;;;;;5076494;28;20206;-65
2021/08/09 00:11:15;;;;;;;2.87;2.20;;;17.90;99.90;;;;;;5076212;28;20179;-66
2021/08/09 00:13:41;;;;;;;2.20;2.00;;;17.90;99.90;;;;;;5076467;28;20194;-62
2021/08/09 00:16:06;;;;;;;3.57;2.47;;;18.00;99.90;;;;;;5076263;28;20278;-66
2021/08/09 00:18:32;;;;;;;2.63;2.37;;;18.00;99.90;;;;;;5076255;28;20522;-62
2021/08/09 00:20:58;;;;;;;3.03;2.60;;;18.00;99.90;;;;;;5076162;28;20230;-62
2021/08/09 00:23:24;;;;;;;2.37;2.17;;;18.00;99.90;;;;;;5075988;28;20210;-65
2021/08/09 00:25:49;;;;;;;2.70;2.50;;;18.00;99.90;;;;;;5076047;28;20183;-65
2021/08/09 00:28:15;;;;;;;2.40;2.10;;;18.00;99.90;;;;;;5076218;28;20176;-65
2021/08/09 00:30:40;;;;;;;2.50;2.20;;;18.00;99.90;;;;;;5075803;28;20569;-60
2021/08/09 00:33:06;;;;;;;2.63;2.10;;;18.00;99.90;;;;;;5075873;28;20204;-60
2021/08/09 00:35:31;;;;;;;3.77;2.33;;;18.00;99.90;;;;;;5075162;28;20557;-65
2021/08/09 00:37:57;;;;;;;3.40;2.30;;;18.00;99.90;;;;;;5075415;28;20192;-65
2021/08/09 00:40:22;;;;;;;4.27;2.50;;;17.90;99.90;;;;;;5075845;28;20171;-61
2021/08/09 00:42:48;;;;;;;2.37;2.00;;;17.80;99.90;;;;;;5075359;28;20623;-55
2021/08/09 00:45:13;;;;;;;2.43;2.23;;;17.80;99.90;;;;;;5074947;28;20171;-65
2021/08/09 00:47:39;;;;;;;6.13;2.40;;;17.80;99.90;;;;;;5075634;28;20181;-59
2021/08/09 00:50:05;;;;;;;3.77;2.43;;;17.80;99.90;;;;;;5075509;28;20293;-58
2021/08/09 00:52:31;;;;;;;4.40;2.23;;;17.80;99.90;;;;;;5075215;28;20170;-59
2021/08/09 00:54:57;;;;;;;2.43;1.73;;;17.70;99.90;;;;;;5076090;28;20179;-66
2021/08/09 00:57:24;;;;;;;2.87;2.17;;;17.70;99.90;;;;;;5075426;28;20642;-59
2021/08/09 00:59:49;;;;;;;2.47;2.17;;;17.70;99.90;;;;;;5075315;28;20171;-63
2021/08/09 01:02:15;;;;;;;4.53;2.50;;;17.60;99.90;;;;;;5075335;28;20250;-59
2021/08/09 01:04:41;;;;;;;6.93;2.47;;;17.60;99.90;;;;;;5075184;28;20566;-59
2021/08/09 01:07:08;;;;;;;2.80;2.60;;;17.60;99.90;;;;;;5075757;28;20178;-62
2021/08/09 01:09:40;;;;;;;2.50;2.30;;;17.50;99.90;;;;;;5074981;28;20507;-64
2021/08/09 01:12:22;;;;;;;2.70;2.50;;;17.40;99.90;;;;;;5074866;28;20261;-65
2021/08/09 01:15:08;;;;;;;2.43;2.20;;;17.40;99.90;;;;;;5074937;28;20273;-60
2021/08/09 01:17:39;;;;;;;2.63;2.43;;;17.30;99.90;;;;;;5075853;28;20190;-58
2021/08/09 01:20:17;;;;;;;2.90;2.60;;;17.30;99.90;;;;;;5074798;28;20619;-61
2021/08/09 01:22:53;;;;;;;2.90;2.20;;;17.20;99.90;;;;;;5074988;28;20659;-65
2021/08/09 01:25:37;;;;;;;2.67;2.47;;;17.10;99.90;;;;;;5074621;28;20514;-62
2021/08/09 01:28:05;;;;;;;2.17;2.07;;;17.10;99.90;;;;;;5074746;28;20348;-65
2021/08/09 01:30:32;;;;;;;2.30;2.20;;;17.10;99.90;;;;;;5074468;28;20187;-61
2021/08/09 01:32:58;;;;;;;2.90;2.20;;;17.10;99.90;;;;;;5074385;28;20199;-65
2021/08/09 01:35:25;;;;;;;2.20;2.10;;;17.10;99.90;;;;;;5074967;28;20183;-65
2021/08/09 01:37:56;;;;;;;2.13;2.03;;;17.10;99.90;;;;;;5074526;28;20561;-57
2021/08/09 01:40:23;;;;;;;2.27;2.17;;;17.20;99.90;;;;;;5074055;28;20186;-57
2021/08/09 01:42:49;;;;;;;2.30;2.20;;;17.20;99.90;;;;;;5074290;28;20198;-60
2021/08/09 01:45:16;;;;;;;3.17;2.40;;;17.10;99.90;;;;;;5074387;28;20178;-54
2021/08/09 01:47:43;;;;;;;2.70;2.50;;;17.10;99.90;;;;;;5074759;28;20174;-58
2021/08/09 01:50:11;;;;;;;2.70;2.50;;;17.10;99.90;;;;;;5074542;28;20178;-63
2021/08/09 01:52:39;;;;;;;2.77;2.57;;;17.10;99.90;;;;;;5074125;28;20186;-59
2021/08/09 01:55:07;;;;;;;2.40;2.20;;;17.10;99.90;;;;;;5074213;28;20190;-65
2021/08/09 01:57:33;;;;;;;2.80;2.60;;;17.10;99.90;;;;;;5073818;28;20523;-63
2021/08/09 01:59:59;;;;;;;2.83;2.63;;;17.10;99.90;;;;;;5074483;28;20542;-65
2021/08/09 02:02:31;;;;;;;2.80;2.60;;;17.10;99.90;;;;;;5074169;28;20626;-61
2021/08/09 02:05:03;;;;;;;2.50;2.30;;;17.10;99.90;;;;;;5067744;28;20527;-65
2021/08/09 02:07:29;;;;;;;2.90;2.70;;;17.10;99.90;;;;;;5054622;28;20477;-65
2021/08/09 02:09:54;;;;;;;3.90;2.90;;;17.00;99.90;;;;;;5054062;28;20653;-62
2021/08/09 02:12:20;;;;;;;2.63;2.43;;;16.90;99.90;;;;;;5053820;28;20274;-62
2021/08/09 02:14:53;;;;;;;2.77;2.57;;;16.80;99.90;;;;;;5054137;28;20202;-54
2021/08/09 02:17:28;;;;;;;4.90;2.40;;;16.80;99.90;;;;;;5054038;28;20591;-58
2021/08/09 02:20:01;;;;;;;3.33;2.70;;;16.80;99.90;;;;;;5054029;28;20175;-65
2021/08/09 02:22:45;;;;;;;2.60;2.40;;;16.90;99.90;;;;;;5053774;28;20595;-65
2021/08/09 02:25:14;;;;;;;2.80;2.60;;;16.90;99.90;;;;;;5054540;28;20206;-58
2021/08/09 02:27:49;;;;;;;4.27;2.90;;;16.80;99.90;;;;;;5053756;28;20168;-61
2021/08/09 02:30:18;;;;;;;3.00;2.80;;;16.80;99.90;;;;;;5054321;28;20236;-65
2021/08/09 02:32:45;;;;;;;2.83;2.53;;;16.80;99.90;;;;;;5053200;28;20195;-64
2021/08/09 02:35:15;;;;;;;2.87;2.67;;;16.80;99.90;;;;;;5054053;28;20172;-65
2021/08/09 02:37:42;;;;;;;3.27;2.97;;;16.80;99.90;;;;;;5053673;28;20199;-64
2021/08/09 02:40:08;;;;;;;3.10;2.80;;;16.90;99.90;;;;;;5053656;28;20254;-65
2021/08/09 02:42:34;;;;;;;2.80;2.60;;;16.90;99.90;;;;;;5053320;28;20179;-65
2021/08/09 02:45:00;;;;;;;3.00;2.80;;;16.90;99.90;;;;;;5053310;28;20229;-59
2021/08/09 02:47:27;;;;;;;3.37;3.07;;;16.90;99.90;;;;;;5053720;28;20203;-65
2021/08/09 02:49:53;;;;;;;3.10;2.90;;;16.90;99.90;;;;;;5053951;28;20183;-65
2021/08/09 02:52:20;;;;;;;2.73;2.53;;;16.90;99.90;;;;;;5054006;28;20228;-59
2021/08/09 02:54:47;;;;;;;3.13;2.93;;;16.90;99.90;;;;;;5053607;28;20191;-65
2021/08/09 02:57:15;;;;;;;2.80;2.60;;;16.90;99.90;;;;;;5053378;28;20191;-65
2021/08/09 02:59:40;;;;;;;2.60;2.40;;;16.90;99.90;;;;;;5053650;28;20187;-60
2021/08/09 03:02:08;;;;;;;2.90;2.70;;;16.80;99.90;;;;;;5053361;28;20178;-62
2021/08/09 03:04:35;;;;;;;2.97;2.77;;;16.80;99.90;;;;;;5053162;28;20725;-60
2021/08/09 03:07:06;;;;;;;3.37;3.07;;;16.80;99.90;;;;;;5054134;28;20172;-65
2021/08/09 03:09:35;;;;;;;2.90;2.70;;;16.70;99.90;;;;;;5057388;28;20183;-65
2021/08/09 03:12:02;;;;;;;2.83;2.50;;;16.60;99.90;;;;;;5057083;28;20250;-65
2021/08/09 03:14:31;;;;;;;3.03;2.73;;;16.40;99.90;;;;;;5057103;28;20302;-64
2021/08/09 03:16:59;;;;;;;3.57;2.73;;;16.40;99.90;;;;;;5056961;28;20215;-66
2021/08/09 03:19:25;;;;;;;2.80;2.60;;;16.40;99.90;;;;;;5057561;28;20186;-65
2021/08/09 03:21:55;;;;;;;3.10;2.80;;;16.30;99.90;;;;;;5056984;28;20167;-64
2021/08/09 03:24:22;;;;;;;2.70;2.50;;;16.30;99.90;;;;;;5057034;28;20218;-56
2021/08/09 03:26:48;;;;;;;2.90;2.70;;;16.70;99.90;;;;;;5056927;28;20198;-56
2021/08/09 03:29:14;;;;;;;2.93;2.73;;;16.30;99.90;;;;;;5057435;28;20229;-59
2021/08/09 03:31:40;;;;;;;2.53;2.43;;;16.30;99.90;;;;;;5056520;28;20167;-56
2021/08/09 03:34:05;;;;;;;2.90;2.70;;;16.30;99.90;;;;;;5056874;28;20191;-65
2021/08/09 03:36:31;;;;;;;2.80;2.60;;;16.40;99.90;;;;;;5057385;28;20245;-61
2021/08/09 03:38:57;;;;;;;2.60;2.50;;;16.30;99.90;;;;;;5057410;28;20213;-66
2021/08/09 03:41:22;;;;;;;2.93;2.73;;;16.20;99.90;;;;;;5056519;28;20254;-62
2021/08/09 03:43:48;;;;;;;2.70;2.50;;;16.10;99.90;;;;;;5056733;28;20237;-61
2021/08/09 03:46:14;;;;;;;2.93;2.73;;;16.10;99.90;;;;;;5056926;28;20207;-66
2021/08/09 03:48:40;;;;;;;2.73;2.47;;;16.10;99.90;;;;;;5056339;28;20194;-64
2021/08/09 03:51:06;;;;;;;2.80;2.60;;;16.10;99.90;;;;;;5057230;28;20179;-55
2021/08/09 03:53:31;;;;;;;3.70;2.80;;;16.00;99.90;;;;;;5056572;28;20195;-59
2021/08/09 03:55:57;;;;;;;3.47;3.17;;;15.90;99.90;;;;;;5056526;28;20265;-59
2021/08/09 03:58:22;;;;;;;3.37;3.07;;;15.90;99.90;;;;;;5056282;28;20195;-62
2021/08/09 04:00:48;;;;;;;2.80;2.60;;;15.90;99.90;;;;;;5056645;28;20547;-59
2021/08/09 04:03:13;;;;;;;2.80;2.60;;;16.00;99.90;;;;;;5056491;28;20206;-61
2021/08/09 04:05:39;;;;;;;3.10;2.90;;;16.10;99.90;;;;;;5056368;28;20214;-65
2021/08/09 04:08:05;;;;;;;3.27;3.00;;;16.20;99.90;;;;;;5056098;28;20187;-62
2021/08/09 04:10:30;;;;;;;3.37;3.07;;;16.30;99.90;;;;;;5055966;28;20718;-65
2021/08/09 04:12:56;;;;;;;3.43;3.20;;;16.30;99.90;;;;;;5056036;28;20199;-65
2021/08/09 04:15:22;;;;;;;3.53;3.20;;;16.30;99.90;;;;;;5056179;28;20211;-66
2021/08/09 04:17:47;;;;;;;3.73;3.30;;;16.40;99.90;;;;;;5056535;28;20637;-65
2021/08/09 04:20:13;;;;;;;3.27;2.97;;;16.40;99.90;;;;;;5055427;28;20186;-59
2021/08/09 04:22:38;;;;;;;3.23;3.03;;;16.40;99.90;;;;;;5055694;28;20198;-56
2021/08/09 04:25:04;;;;;;;3.10;2.90;;;16.40;99.90;;;;;;5056670;28;20172;-65
2021/08/09 04:27:30;;;;;;;2.57;2.40;;;16.40;99.90;;;;;;5055746;28;20627;-58
2021/08/09 04:29:56;;;;;;;2.30;2.20;;;16.40;99.90;;;;;;5055881;28;20182;-64
2021/08/09 04:32:21;;;;;;;2.50;2.33;;;16.50;99.90;;;;;;5056208;28;20198;-66
2021/08/09 04:34:47;;;;;;;3.90;2.80;;;16.50;99.90;;;;;;5055666;28;20209;-65
2021/08/09 04:37:13;;;;;;;6.63;3.00;;;16.50;99.90;;;;;;5055994;28;20287;-60
2021/08/09 04:39:39;;;;;;;2.67;2.47;;;16.50;99.90;;;;;;5055456;28;20183;-65
2021/08/09 04:42:05;;;;;;;2.70;2.50;;;16.50;99.90;;;;;;5055330;28;20259;-65
2021/08/09 04:44:31;;;;;;;2.70;2.50;;;16.50;99.90;;;;;;5055256;28;20183;-65
2021/08/09 04:46:57;;;;;;;2.63;2.43;;;16.50;99.90;;;;;;5055584;28;20650;-65
2021/08/09 04:49:24;;;;;;;2.50;2.30;;;16.50;99.90;;;;;;5056199;28;20194;-59
2021/08/09 04:51:51;;;;;;;2.10;2.00;;;16.50;99.90;;;;;;5055604;28;20180;-65
2021/08/09 04:54:16;;;;;;;3.70;2.60;;;16.60;99.90;;;;;;5055497;28;20622;-65
2021/08/09 04:56:42;;;;;;;4.07;2.50;;;16.60;99.90;;;;;;5055003;28;20274;-61
2021/08/09 04:59:07;;;;;;;2.80;2.60;;;16.70;99.90;;;;;;5068375;28;20175;-60
2021/08/09 05:01:33;;;;;;;2.80;2.60;;;16.70;99.90;;;;;;5075126;28;20201;-66
2021/08/09 05:03:58;;;;;;;3.37;3.07;;;16.80;99.90;;;;;;5075848;28;20194;-65
2021/08/09 05:06:24;;;;;;;3.30;3.00;;;16.70;99.90;;;;;;5075586;28;20170;-59
2021/08/09 05:08:50;;;;;;;3.00;2.70;;;16.60;99.90;;;;;;5075409;28;20205;-65
2021/08/09 05:11:15;;;;;;;3.00;2.80;;;16.40;99.90;;;;;;5075026;28;20181;-59
2021/08/09 05:13:41;;;;;;;5.50;2.70;;;16.40;99.90;;;;;;5075085;28;20190;-61
2021/08/09 05:16:06;;;;;;;2.87;2.67;;;16.40;99.90;;;;;;5075323;28;20179;-56
2021/08/09 05:18:32;;;;;;;3.87;2.67;;;16.40;99.90;;;;;;5075069;28;20182;-66
2021/08/09 05:20:58;;;;;;;3.03;2.83;;;16.30;99.90;;;;;;5074990;28;20167;-65
2021/08/09 05:23:24;;;;;;;3.33;2.50;;;16.30;99.90;;;;;;5074408;28;20207;-64
2021/08/09 05:25:49;;;;;;;2.93;2.67;;;16.20;99.90;;;;;;5074885;28;20213;-57
2021/08/09 05:28:15;;;;;;;2.87;2.50;;;16.10;99.90;;;;;;5075197;28;20265;-59
2021/08/09 05:30:42;;;;;;;3.10;2.77;;;16.20;99.90;;;;;;5074934;28;20166;-57
2021/08/09 05:33:08;;;;;;;3.60;2.40;;;16.50;99.90;;;;;;5074305;28;20206;-56
2021/08/09 05:35:33;;;;;;;3.10;2.90;;;16.70;99.90;;;;;;5074688;28;20181;-61
2021/08/09 05:37:59;;;;;;;2.90;2.60;;;16.90;99.90;;;;;;5074714;28;20273;-66
2021/08/09 05:40:25;;;;;;;2.67;2.47;;;17.70;99.90;;;;;;5074567;28;20179;-66
2021/08/09 05:42:51;;;;;;;3.30;3.10;;;17.30;99.90;;;;;;5073650;28;20206;-58
2021/08/09 05:45:17;;;;;;;3.00;2.80;;;17.30;99.90;;;;;;5074661;28;20167;-66
2021/08/09 05:47:43;;;;;;;2.90;2.70;;;17.30;99.90;;;;;;5075314;28;20638;-64
2021/08/09 05:50:10;;;;;;;3.10;2.80;;;17.30;99.90;;;;;;5074087;28;20178;-65
2021/08/09 05:52:35;;;;;;;2.70;2.50;;;17.20;99.90;;;;;;5074115;28;20511;-60
2021/08/09 05:55:03;;;;;;;3.03;2.83;;;17.20;99.90;;;;;;5074163;28;20626;-60
2021/08/09 05:57:29;;;;;;;3.90;3.60;;;17.20;99.90;;;;;;5074435;28;20206;-62
2021/08/09 05:59:54;;;;;;;3.43;3.17;;;17.20;99.90;;;;;;5073959;28;20588;-65
2021/08/09 06:02:20;;;;;;;2.93;2.73;;;17.40;99.90;;;;;;5074224;28;20246;-64
2021/08/09 06:04:46;;;;;;;3.70;3.40;;;17.60;99.90;;;;;;5073389;28;20205;-62
2021/08/09 06:07:13;;;;;;;3.23;2.73;;;17.80;99.90;;;;;;5074325;28;20173;-62
2021/08/09 06:09:39;;;;;;;3.00;2.80;;;17.80;99.90;;;;;;5072700;28;20234;-61
2021/08/09 06:12:05;;;;;;;3.63;2.90;;;17.80;99.90;;;;;;5073512;28;20262;-66
2021/08/09 06:14:30;;;;;;;3.10;2.87;;;17.90;99.90;;;;;;5073302;28;20236;-64
2021/08/09 06:16:56;;;;;;;4.60;3.57;;;18.10;99.90;;;;;;5072790;28;20191;-64
2021/08/09 06:19:21;;;;;;;4.03;3.30;;;18.00;99.90;;;;;;5073543;28;20189;-65
2021/08/09 06:21:47;;;;;;;3.17;2.97;;;17.80;99.90;;;;;;5073863;28;20259;-55
2021/08/09 06:24:12;;;;;;;4.67;3.03;;;17.70;99.90;;;;;;5072592;28;20200;-64
2021/08/09 06:26:38;;;;;;;3.30;3.00;;;17.70;99.90;;;;;;5073329;28;20178;-62
2021/08/09 06:29:03;;;;;;;3.40;3.20;;;17.50;99.90;;;;;;5073404;28;20268;-59
2021/08/09 06:31:29;;;;;;;3.60;2.83;;;17.50;99.90;;;;;;5073598;28;20173;-62
2021/08/09 06:33:55;;;;;;;3.87;2.70;;;17.40;99.90;;;;;;5072849;28;20602;-54
2021/08/09 06:36:20;;;;;;;2.77;2.57;;;17.30;99.90;;;;;;5072984;28;20603;-65
2021/08/09 06:38:46;;;;;;;2.47;2.33;;;17.20;99.90;;;;;;5060766;28;20212;-65
2021/08/09 06:41:11;;;;;;;2.80;2.47;;;17.20;99.90;;;;;;5053357;28;20183;-65
2021/08/09 06:43:37;;;;;;;3.50;2.60;;;17.40;99.90;;;;;;5053051;28;20209;-66
2021/08/09 06:46:02;;;;;;;2.40;2.20;;;17.50;99.90;;;;;;5074959;28;20230;-62
2021/08/09 06:48:28;;;;;;;2.50;2.30;;;17.40;99.90;;;;;;5088692;28;20178;-65
2021/08/09 06:50:53;;;;;;;2.40;2.20;;;17.40;99.90;;;;;;5071084;28;20514;-61
2021/08/09 06:53:19;;;;;;;2.23;2.03;;;17.60;99.90;;;;;;5067991;28;20193;-57
2021/08/09 06:55:45;;;;;;;2.33;2.00;;;17.80;99.90;;;;;;5066335;28;20179;-64
2021/08/09 06:58:10;;;;;;;2.10;1.97;;;17.90;99.90;;;;;;5073278;28;20300;-65
2021/08/09 07:00:36;;;;;;;2.13;2.00;;;18.20;99.90;;;;;;5079280;28;20248;-66
2021/08/09 07:03:08;;;;;;;2.27;1.87;;;18.30;99.90;;;;;;5084133;28;20280;-65
2021/08/09 07:05:41;;;;;;;2.17;1.90;;;18.50;99.90;;;;;;5053962;28;20261;-62
2021/08/09 07:08:07;;;;;;;2.40;1.67;;;18.80;99.90;;;;;;5053315;28;20512;-58
2021/08/09 07:10:32;;;;;;;2.87;1.77;;;19.00;99.90;;;;;;5053308;28;20191;-66
2021/08/09 07:12:58;;;;;;;1.13;1.10;;;19.10;99.90;;;;;;5056658;28;20199;-66
2021/08/09 07:15:23;;;;;;;2.53;1.23;;;19.40;99.90;;;;;;5063382;28;20706;-66
2021/08/09 07:17:49;;;;;;;1.70;1.27;;;19.40;99.90;;;;;;5069287;28;20194;-65
2021/08/09 07:20:15;;;;;;;1.47;1.37;;;19.70;99.90;;;;;;5073186;28;20183;-66
2021/08/09 07:22:42;;;;;;;2.37;1.50;;;20.00;99.90;;;;;;5073024;28;20191;-62
2021/08/09 07:25:09;;;;;;;1.50;1.40;;;20.30;99.90;;;;;;5069207;28;20186;-61
2021/08/09 07:27:36;;;;;;;1.30;1.20;;;20.60;99.90;;;;;;5069127;28;20174;-66
2021/08/09 07:30:03;;;;;;;2.20;1.57;;;20.80;99.90;;;;;;5093670;28;20566;-67
2021/08/09 07:32:29;;;;;;;2.30;1.20;;;20.90;99.90;;;;;;5093023;28;20579;-66
2021/08/09 07:34:54;;;;;;;1.43;1.33;;;20.90;99.90;;;;;;5093384;28;20189;-62
2021/08/09 07:37:20;;;;;;;1.57;1.37;;;20.50;99.90;;;;;;5093279;28;20673;-66
2021/08/09 07:39:45;;;;;;;1.63;1.33;;;20.50;99.90;;;;;;5093294;28;20166;-66
2021/08/09 07:42:11;;;;;;;1.47;1.17;;;20.30;99.90;;;;;;5093143;28;20174;-65
2021/08/09 07:44:37;;;;;;;1.53;1.23;;;20.20;99.90;;;;;;5094096;28;20190;-66
2021/08/09 07:47:02;;;;;;;2.60;1.30;;;20.20;99.90;;;;;;5093292;28;20185;-59
2021/08/09 07:49:28;;;;;;;1.67;1.30;;;20.10;99.90;;;;;;5093163;28;20194;-66
2021/08/09 07:51:53;;;;;;;1.10;1.00;;;20.30;99.90;;;;;;5093429;28;20243;-66
2021/08/09 07:54:20;;;;;;;1.63;1.00;;;20.60;99.90;;;;;;5095555;28;20553;-67
2021/08/09 07:56:46;;;;;;;2.35;1.25;;;20.80;99.90;;;;;;5096691;28;20194;-66
2021/08/09 07:59:12;;;;;;;1.07;1.00;;;20.90;99.90;;;;;;5096673;28;20183;-66
2021/08/09 08:01:37;;;;;;;1.57;1.00;;;20.90;99.90;;;;;;5097134;28;20178;-61
2021/08/09 08:04:03;;;;;;;1.20;1.05;;;21.00;99.90;;;;;;5096641;28;20194;-65
2021/08/09 08:06:29;;;;;;;1.80;1.08;;;20.90;99.90;;;;;;5096902;28;20192;-66
2021/08/09 08:08:54;;;;;;;1.52;1.00;;;21.10;99.90;;;;;;5096328;28;20189;-62
2021/08/09 08:11:20;;;;;;;1.10;1.00;;;20.60;99.90;;;;;;5097098;28;20503;-65
2021/08/09 08:13:45;;;;;;;2.00;1.17;;;20.70;99.90;;;;;;5096641;28;20545;-66
2021/08/09 08:16:11;;;;;;;1.10;0.90;;;20.60;99.90;;;;;;5097008;28;20178;-64
2021/08/09 08:18:36;;;;;;;2.15;1.10;;;20.90;99.90;;;;;;5097157;28;20184;-62
2021/08/09 08:21:02;;;;;;;1.60;1.20;;;21.10;99.90;;;;;;5096151;28;20191;-63
2021/08/09 08:23:29;;;;;;;1.48;1.20;;;20.90;99.90;;;;;;5081968;28;20275;-62
2021/08/09 08:25:54;;;;;;;1.30;1.13;;;21.00;99.90;;;;;;5068801;28;20159;-66
2021/08/09 08:28:20;;;;;;;2.10;1.00;;;20.80;99.90;;;;;;5076034;28;20170;-62
2021/08/09 08:30:45;;;;;;;1.03;0.93;;;20.80;99.90;;;;;;5075984;28;20181;-62
2021/08/09 08:33:11;;;;;;;2.50;1.17;;;21.00;99.90;;;;;;5075712;28;20285;-58
2021/08/09 08:35:37;;;;;;;1.67;1.00;;;21.10;99.90;;;;;;5075662;28;20175;-62
2021/08/09 08:38:02;;;;;;;2.08;1.30;;;21.30;99.90;;;;;;5076118;28;20233;-59
2021/08/09 08:40:28;;;;;;;0.93;0.80;;;21.40;99.90;;;;;;5075957;28;20196;-67
2021/08/09 08:42:53;;;;;;;1.38;1.13;;;21.60;99.90;;;;;;5075747;28;20247;-66
2021/08/09 08:45:21;;;;;;;1.33;0.98;;;21.70;99.90;;;;;;5076397;28;20172;-58
2021/08/09 08:47:48;;;;;;;1.20;0.90;;;21.90;99.90;;;;;;5076769;28;20186;-66
2021/08/09 08:50:19;;;;;;;4.50;0.98;;;22.10;99.90;;;;;;5075613;28;20199;-65
2021/08/09 08:52:48;;;;;;;2.00;1.30;;;21.90;99.90;;;;;;5075003;28;20190;-65
2021/08/09 08:55:18;;;;;;;1.13;1.00;;;21.70;99.90;;;;;;5075561;28;20227;-61
2021/08/09 08:57:45;;;;;;;1.02;0.80;;;21.70;99.90;;;;;;5075246;28;20596;-66
2021/08/09 09:00:13;;;;;;;2.65;1.25;;;21.80;99.90;;;;;;5075366;28;20553;-61
2021/08/09 09:02:39;;;;;;;2.22;1.08;;;21.90;99.90;;;;;;5074906;28;20662;-65
2021/08/09 09:05:07;;;;;;;0.88;0.80;;;22.00;99.90;;;;;;5075091;28;20178;-62
2021/08/09 09:07:32;;;;;;;2.25;1.17;;;22.10;99.90;;;;;;5075315;28;20188;-66
2021/08/09 09:10:17;;;;;;;1.35;1.08;;;22.10;99.90;;;;;;5075684;28;20190;-65
2021/08/09 09:12:44;;;;;;;1.35;0.88;;;22.50;99.90;;;;;;5075046;28;20162;-66
2021/08/09 09:15:10;;;;;;;2.22;0.88;;;22.80;99.90;;;;;;5075323;28;20174;-63
2021/08/09 09:17:38;;;;;;;1.63;1.05;;;23.00;99.90;;;;;;5075362;28;20340;-65
2021/08/09 09:20:40;;;;;;;1.42;1.00;;;22.90;99.90;;;;;;5074592;28;20202;-66
2021/08/09 09:23:16;;;;;;;1.27;0.90;;;22.60;99.90;;;;;;5032864;28;20199;-66
2021/08/09 09:25:44;;;;;;;1.13;0.68;;;22.90;99.90;;;;;;5033391;28;20203;-62
2021/08/09 09:28:24;;;;;;;3.70;0.90;;;22.70;99.90;;;;;;5033121;28;20230;-60
2021/08/09 09:30:50;;;;;;;0.82;0.70;;;22.90;99.90;;;;;;5017542;28;20208;-66
2021/08/09 09:33:15;;;;;;;1.13;1.02;;;23.10;99.90;;;;;;5052845;28;20198;-62
2021/08/09 09:35:41;;;;;;;1.08;0.90;;;23.10;99.90;;;;;;5052746;28;20179;-66
2021/08/09 09:38:07;;;;;;;3.08;1.23;;;23.40;99.90;;;;;;5052864;28;20207;-61
2021/08/09 09:40:42;;;;;;;0.70;0.70;;;23.40;99.90;;;;;;5052536;28;20191;-66
2021/08/09 09:43:21;;;;;;;1.90;0.90;;;23.80;99.90;;;;;;5052331;28;20191;-65
2021/08/09 09:45:54;;;;;;;1.42;0.90;;;24.10;99.90;;;;;;5052675;28;20175;-66
2021/08/09 09:48:42;;;;;;;0.80;0.68;;;24.50;99.90;;;;;;5052614;28;20226;-61
2021/08/09 09:51:18;;;;;;;1.85;0.90;;;24.80;99.90;;;;;;4992651;28;20721;-66
2021/08/09 09:53:46;;;;;;;1.17;0.70;;;25.10;99.90;;;;;;4993025;28;20590;-63
2021/08/09 09:56:12;;;;;;;1.05;0.80;;;25.30;99.90;;;;;;4998759;28;20184;-66
2021/08/09 09:58:39;;;;;;;2.15;1.08;;;25.30;99.90;;;;;;5032304;28;20199;-60
2021/08/09 10:01:07;;;;;;;1.17;0.90;;;25.00;99.90;;;;;;5031991;28;20174;-67
2021/08/09 10:03:37;;;;;;;2.05;0.80;;;24.90;99.90;;;;;;5032121;28;20200;-63
2021/08/09 10:06:04;;;;;;;2.85;0.70;;;25.00;99.90;;;;;;5032416;28;20250;-61
2021/08/09 10:08:38;;;;;;;1.13;1.00;;;25.20;99.90;;;;;;5032125;28;20206;-65
2021/08/09 10:11:05;;;;;;;2.42;1.20;;;25.00;99.90;;;;;;5032328;28;20190;-64
2021/08/09 10:13:32;;;;;;;1.67;0.80;;;25.20;99.90;;;;;;5031914;28;20211;-62
2021/08/09 10:16:07;;;;;;;1.20;0.82;;;25.20;99.90;;;;;;5031913;28;20656;-63
2021/08/09 10:18:37;;;;;;;1.05;0.80;;;25.50;99.90;;;;;;5031933;28;20237;-61
2021/08/09 10:21:04;;;;;;;1.13;0.90;;;25.80;99.90;;;;;;5032559;28;20176;-63
2021/08/09 10:23:39;;;;;;;1.45;0.82;;;25.80;99.90;;;;;;5031760;28;20287;-63
2021/08/09 10:26:12;;;;;;;1.63;0.70;;;26.00;99.90;;;;;;5032029;28;20640;-66
2021/08/09 10:28:53;;;;;;;0.82;0.60;;;26.30;99.90;;;;;;5061301;28;20179;-62
2021/08/09 10:31:30;;;;;;;1.45;0.85;;;26.30;99.90;;;;;;5074201;28;20235;-63
2021/08/09 10:33:56;;;;;;;1.45;1.00;;;26.50;99.90;;;;;;5073958;28;20198;-64
2021/08/09 10:36:23;;;;;;;1.73;0.75;;;26.30;99.90;;;;;;5073811;28;20166;-61
2021/08/09 10:38:58;;;;;;;1.75;0.80;;;26.10;99.90;;;;;;5073456;28;20236;-66
2021/08/09 10:41:27;;;;;;;1.25;0.98;;;26.20;99.90;;;;;;5073570;28;20178;-62
2021/08/09 10:44:04;;;;;;;1.02;0.63;;;26.10;99.90;;;;;;5073154;28;20220;-66
2021/08/09 10:46:44;;;;;;;1.45;0.77;;;26.20;99.90;;;;;;5053847;28;20264;-63
2021/08/09 10:49:30;;;;;;;1.70;0.80;;;26.60;99.90;;;;;;5053778;28;20191;-66
2021/08/09 10:51:56;;;;;;;1.48;0.90;;;26.30;99.90;;;;;;5053878;28;20225;-66
2021/08/09 10:54:29;;;;;;;1.10;0.98;;;26.50;99.90;;;;;;5053908;28;20216;-62
2021/08/09 10:56:56;;;;;;;1.67;0.90;;;26.70;99.90;;;;;;5053528;28;20233;-62
2021/08/09 10:59:37;;;;;;;1.55;0.98;;;27.00;99.90;;;;;;5053368;28;20171;-63
2021/08/09 11:02:03;;;;;;;1.17;0.98;;;27.20;99.90;;;;;;5059347;28;20536;-66
2021/08/09 11:04:29;;;;;;;0.82;0.82;;;26.70;99.90;;;;;;5073297;28;20737;-62
2021/08/09 11:06:55;;;;;;;1.17;0.90;;;26.80;99.90;;;;;;5072791;28;20265;-67
2021/08/09 11:09:29;;;;;;;1.20;0.70;;;27.00;99.90;;;;;;5069008;28;20190;-62
2021/08/09 11:12:17;;;;;;;1.10;0.93;;;27.20;99.90;;;;;;5081618;28;20280;-66
2021/08/09 11:15:00;;;;;;;1.15;1.00;;;27.40;99.90;;;;;;5052985;28;20199;-66
2021/08/09 11:17:33;;;;;;;1.10;0.85;;;27.40;99.90;;;;;;5052547;28;20230;-64
2021/08/09 11:20:16;;;;;;;0.82;0.75;;;27.20;99.90;;;;;;5058317;28;20151;-60
2021/08/09 11:22:48;;;;;;;1.02;0.77;;;27.40;99.90;;;;;;5072519;28;20240;-59
2021/08/09 11:25:37;;;;;;;1.40;1.02;;;27.70;99.90;;;;;;5072371;28;20631;-59
2021/08/09 11:28:10;;;;;;;0.93;0.70;;;28.00;99.90;;;;;;5053328;28;20232;-63
2021/08/09 11:30:48;;;;;;;0.68;0.68;;;28.00;99.90;;;;;;5066803;28;20179;-60
2021/08/09 11:33:39;;;;;;;1.10;0.90;;;28.10;99.90;;;;;;5067360;28;20202;-60
2021/08/09 11:36:13;;;;;;;1.33;0.90;;;28.10;99.90;;;;;;5063264;28;20207;-59
2021/08/09 11:38:48;;;;;;;0.90;0.70;;;28.20;99.90;;;;;;5064802;28;20179;-61
2021/08/09 11:41:21;;;;;;;1.52;0.80;;;28.40;99.90;;;;;;5056606;28;20177;-62
2021/08/09 11:43:48;;;;;;;0.60;0.60;;;28.50;99.80;;;;;;5056516;28;20199;-63
2021/08/09 11:46:16;;;;;;;1.67;1.02;;;28.30;99.90;;;;;;5056656;28;20172;-64
2021/08/09 11:48:45;;;;;;;1.10;0.80;;;28.30;99.90;;;;;;5056630;28;20188;-64
2021/08/09 11:51:20;;;;;;;1.08;0.73;;;27.90;99.90;;;;;;5056333;28;20194;-62
2021/08/09 11:53:48;;;;;;;1.23;1.00;;;27.60;99.90;;;;;;5056494;28;20183;-63
2021/08/09 11:56:30;;;;;;;2.65;1.02;;;27.40;99.90;;;;;;5058992;28;20566;-63
2021/08/09 11:58:57;;;;;;;0.80;0.80;;;27.70;99.90;;;;;;5076329;28;20197;-63
2021/08/09 12:01:39;;;;;;;2.13;0.77;;;27.80;99.90;;;;;;5076199;28;20178;-62
2021/08/09 12:04:13;;;;;;;1.10;0.82;;;27.70;99.90;;;;;;5076747;28;20186;-64
2021/08/09 12:06:51;;;;;;;1.05;0.73;;;27.90;99.90;;;;;;5076519;28;20163;-64
2021/08/09 12:09:23;;;;;;;1.70;0.88;;;28.30;99.90;;;;;;5076375;28;20210;-64
2021/08/09 12:11:57;;;;;;;1.15;0.73;;;28.50;99.90;;;;;;5076083;28;20627;-63
2021/08/09 12:14:23;;;;;;;0.70;0.70;;;28.50;99.40;;;;;;5075869;28;20208;-63
2021/08/09 12:16:56;;;;;;;1.08;0.73;;;28.30;99.90;;;;;;5072439;28;20285;-64
2021/08/09 12:19:38;;;;;;;0.80;0.68;;;28.60;99.90;;;;;;5056095;28;20199;-60
2021/08/09 12:22:34;;;;;;;1.25;0.93;;;29.00;99.50;;;;;;5055553;28;20210;-62
2021/08/09 12:25:12;;;;;;;2.25;0.93;;;29.20;99.90;;;;;;5055944;28;20543;-65
2021/08/09 12:27:39;;;;;;;1.15;1.00;;;29.30;98.90;;;;;;5055729;28;20489;-60
2021/08/09 12:30:13;;;;;;;2.50;1.27;;;29.30;99.20;;;;;;5063884;28;20182;-63
2021/08/09 12:32:43;;;;;;;1.27;0.90;;;29.10;99.80;;;;;;5055431;28;20179;-60
2021/08/09 12:35:10;;;;;;;0.60;0.60;;;29.00;98.70;;;;;;5061219;28;20171;-65
2021/08/09 12:37:37;;;;;;;1.08;0.98;;;28.90;97.30;;;;;;5075860;28;20203;-59
2021/08/09 12:40:12;;;;;;;0.98;0.57;;;28.90;98.00;;;;;;5075138;28;20171;-59
2021/08/09 12:42:38;;;;;;;0.90;0.80;;;29.00;98.30;;;;;;5073877;28;20170;-63
2021/08/09 12:45:04;;;;;;;2.47;1.00;;;28.90;96.50;;;;;;5069211;28;20258;-63
2021/08/09 12:47:31;;;;;;;1.98;1.13;;;28.70;98.00;;;;;;5064839;28;20489;-61
2021/08/09 12:49:57;;;;;;;1.83;0.80;;;28.90;99.90;;;;;;5056316;28;20682;-64
2021/08/09 12:52:22;;;;;;;1.60;0.90;;;29.20;98.80;;;;;;5055414;28;20183;-64
2021/08/09 12:54:48;;;;;;;1.27;0.90;;;29.60;98.30;;;;;;5055140;28;20222;-61